Time;durP1;ratioP1;P1;durP2;ratioP2;P2;SDS_P1;SDS_P2;PMS_P1;PMS_P2;Temp;Humidity;BMP_temperature;BMP_pressure;BME280_temperature;BME280_humidity;BME280_pressure;Samples;Min_cycle;Max_cycle;Signal;HPM_P1;HPM_P2
2023/01/02 00:00:32;;;;;;;2.03;1.48;;;13.40;85.00;;;;;;5076768;28;20116;-60
2023/01/02 00:02:58;;;;;;;2.13;1.50;;;13.40;85.10;;;;;;5099231;28;20039;-61
2023/01/02 00:05:23;;;;;;;3.05;1.85;;;13.40;85.20;;;;;;5108254;28;20019;-66
2023/01/02 00:07:49;;;;;;;3.05;1.98;;;13.40;85.20;;;;;;5090837;28;20540;-65
2023/01/02 00:10:15;;;;;;;5.57;1.80;;;13.40;85.30;;;;;;5103935;28;20038;-66
2023/01/02 00:12:40;;;;;;;4.05;1.65;;;13.50;85.30;;;;;;5099659;28;20062;-66
2023/01/02 00:15:06;;;;;;;3.17;1.38;;;13.50;85.40;;;;;;5098304;28;20062;-63
2023/01/02 00:17:32;;;;;;;3.13;1.98;;;13.50;85.30;;;;;;5084981;28;20119;-60
2023/01/02 00:19:58;;;;;;;2.65;1.75;;;13.50;85.40;;;;;;5086627;28;20030;-66
2023/01/02 00:22:23;;;;;;;5.03;1.77;;;13.50;85.40;;;;;;5091792;28;20494;-66
2023/01/02 00:24:49;;;;;;;4.07;1.38;;;13.50;85.40;;;;;;5102384;28;20077;-61
2023/01/02 00:27:15;;;;;;;3.92;1.55;;;13.60;85.40;;;;;;5096240;28;20506;-60
2023/01/02 00:29:40;;;;;;;3.15;1.65;;;13.60;85.30;;;;;;5103914;28;20035;-60
2023/01/02 00:32:06;;;;;;;4.93;1.20;;;13.60;85.40;;;;;;5072615;28;20044;-61
2023/01/02 00:34:32;;;;;;;3.70;2.40;;;13.60;85.30;;;;;;5087613;28;20403;-66
2023/01/02 00:36:57;;;;;;;2.78;1.50;;;13.70;85.30;;;;;;5049822;28;20044;-66
2023/01/02 00:39:23;;;;;;;2.92;2.03;;;13.70;85.30;;;;;;5075877;28;20020;-61
2023/01/02 00:41:49;;;;;;;2.08;1.33;;;13.70;85.30;;;;;;5097989;28;20039;-61
2023/01/02 00:44:14;;;;;;;3.95;1.70;;;13.70;85.10;;;;;;5089649;28;20134;-66
2023/01/02 00:46:40;;;;;;;1.88;1.52;;;13.70;85.10;;;;;;5082593;28;20028;-61
2023/01/02 00:49:06;;;;;;;3.15;1.67;;;13.70;85.10;;;;;;5092890;28;20030;-61
2023/01/02 00:51:31;;;;;;;3.65;1.17;;;13.80;85.20;;;;;;5096333;28;20032;-61
2023/01/02 00:53:57;;;;;;;2.63;1.80;;;13.70;85.00;;;;;;5095536;28;20024;-60
2023/01/02 00:56:22;;;;;;;2.40;1.10;;;13.80;85.20;;;;;;5079696;28;20028;-61
2023/01/02 00:58:48;;;;;;;2.35;1.33;;;13.70;85.10;;;;;;5074696;28;20059;-61
2023/01/02 01:01:14;;;;;;;1.58;1.23;;;13.70;85.10;;;;;;5074389;28;20124;-61
2023/01/02 01:03:42;;;;;;;5.60;1.63;;;13.80;85.20;;;;;;5074501;28;20028;-61
2023/01/02 01:06:09;;;;;;;2.58;1.67;;;13.70;85.20;;;;;;5088435;28;20015;-61
2023/01/02 01:08:35;;;;;;;3.50;1.90;;;13.70;85.10;;;;;;5089473;28;20384;-60
2023/01/02 01:11:10;;;;;;;2.67;1.58;;;13.80;85.10;;;;;;5092804;28;20161;-61
2023/01/02 01:13:37;;;;;;;3.80;1.50;;;13.80;85.10;;;;;;5108034;28;20036;-66
2023/01/02 01:16:11;;;;;;;6.40;1.67;;;13.80;85.00;;;;;;5099401;28;20020;-66
2023/01/02 01:18:37;;;;;;;3.38;1.65;;;13.80;85.10;;;;;;5097530;28;20398;-66
2023/01/02 01:21:11;;;;;;;2.40;1.13;;;13.80;85.10;;;;;;5096496;28;20064;-61
2023/01/02 01:23:37;;;;;;;2.67;1.25;;;13.80;85.10;;;;;;5107446;28;20027;-66
2023/01/02 01:26:04;;;;;;;2.95;1.50;;;13.80;85.20;;;;;;5105424;28;20028;-66
2023/01/02 01:28:30;;;;;;;1.92;1.40;;;13.80;85.20;;;;;;5101893;28;20043;-66
2023/01/02 01:31:04;;;;;;;1.85;1.42;;;13.80;85.10;;;;;;5094792;28;20035;-66
2023/01/02 01:33:31;;;;;;;1.10;1.00;;;13.80;85.10;;;;;;5095606;28;20157;-61
2023/01/02 01:36:01;;;;;;;3.13;1.27;;;13.90;85.00;;;;;;5090467;28;20030;-61
2023/01/02 01:38:27;;;;;;;1.48;1.38;;;13.90;85.00;;;;;;5076642;28;20038;-61
2023/01/02 01:40:52;;;;;;;2.55;1.20;;;13.90;85.00;;;;;;5088992;28;20029;-67
2023/01/02 01:43:39;;;;;;;1.33;1.23;;;13.90;84.90;;;;;;5093193;28;20051;-60
2023/01/02 01:46:40;;;;;;;1.92;1.20;;;14.00;84.80;;;;;;5086215;28;20024;-60
2023/01/02 01:49:11;;;;;;;2.58;1.30;;;13.90;84.70;;;;;;5060001;28;20624;-66
2023/01/02 01:51:45;;;;;;;2.88;1.13;;;13.90;84.80;;;;;;5087475;28;20028;-60
2023/01/02 01:54:16;;;;;;;2.35;1.48;;;13.90;84.80;;;;;;5088850;28;20104;-61
2023/01/02 01:56:51;;;;;;;3.17;1.70;;;13.90;84.80;;;;;;5104132;28;20032;-60
2023/01/02 01:59:18;;;;;;;2.35;1.52;;;14.00;84.80;;;;;;5106929;28;20297;-61
2023/01/02 02:01:47;;;;;;;2.80;1.48;;;14.00;84.90;;;;;;5095961;28;20531;-61
2023/01/02 02:04:13;;;;;;;2.63;1.38;;;14.00;84.80;;;;;;5096442;28;20533;-65
2023/01/02 02:06:39;;;;;;;3.58;1.52;;;13.90;84.80;;;;;;5090547;28;20133;-65
2023/01/02 02:09:42;;;;;;;1.65;1.20;;;13.90;84.70;;;;;;5098975;28;20038;-66
2023/01/02 02:12:09;;;;;;;3.25;1.45;;;14.00;84.70;;;;;;5056351;28;20036;-65
2023/01/02 02:14:35;;;;;;;5.25;1.85;;;13.90;84.80;;;;;;5100008;28;20491;-66
2023/01/02 02:17:37;;;;;;;2.17;1.77;;;14.00;84.80;;;;;;5094092;28;20088;-61
2023/01/02 02:20:15;;;;;;;2.95;1.60;;;14.00;85.00;;;;;;5104131;28;20374;-66
2023/01/02 02:22:53;;;;;;;2.65;1.38;;;13.90;85.10;;;;;;5108909;28;20039;-65
2023/01/02 02:25:21;;;;;;;3.92;1.33;;;13.90;85.00;;;;;;5107439;28;20028;-66
2023/01/02 02:28:31;;;;;;;1.20;0.93;;;13.90;85.20;;;;;;5088739;28;20032;-61
2023/01/02 02:31:14;;;;;;;2.60;0.93;;;13.90;85.20;;;;;;5046653;28;20051;-61
2023/01/02 02:33:47;;;;;;;2.22;1.50;;;13.90;85.60;;;;;;5100505;28;20047;-65
2023/01/02 02:36:47;;;;;;;3.00;1.30;;;13.80;85.90;;;;;;5083943;28;20031;-60
2023/01/02 02:39:31;;;;;;;5.03;2.05;;;13.90;86.10;;;;;;5092998;28;20028;-61
2023/01/02 02:42:04;;;;;;;3.55;1.85;;;13.90;86.20;;;;;;5099576;28;20371;-61
2023/01/02 02:44:42;;;;;;;4.88;2.05;;;13.90;86.20;;;;;;5096466;28;20041;-61
2023/01/02 02:47:21;;;;;;;5.25;1.45;;;13.90;86.30;;;;;;5103192;28;20024;-66
2023/01/02 02:50:05;;;;;;;4.45;1.85;;;13.90;86.20;;;;;;5096125;28;20084;-66
2023/01/02 02:52:46;;;;;;;4.68;1.10;;;13.90;86.10;;;;;;5089334;28;20038;-65
2023/01/02 02:55:26;;;;;;;2.17;1.05;;;13.90;86.30;;;;;;5102187;28;20098;-62
2023/01/02 02:57:53;;;;;;;3.70;2.28;;;14.00;86.50;;;;;;5104778;28;20148;-61
2023/01/02 03:00:22;;;;;;;5.07;1.50;;;13.90;86.70;;;;;;5090445;28;20031;-66
2023/01/02 03:02:47;;;;;;;1.88;1.67;;;13.90;86.80;;;;;;5109697;28;20032;-65
2023/01/02 03:05:28;;;;;;;1.70;1.10;;;13.90;87.00;;;;;;5087596;28;20033;-61
2023/01/02 03:08:00;;;;;;;1.15;1.00;;;13.90;86.80;;;;;;5090226;28;20029;-61
2023/01/02 03:10:32;;;;;;;;;;;13.90;86.90;;;;;;5082533;28;20027;-61
2023/01/02 03:13:14;;;;;;;3.00;1.75;;;13.90;87.10;;;;;;5104593;28;20397;-61
2023/01/02 03:15:50;;;;;;;4.97;1.97;;;13.90;87.30;;;;;;5074357;28;20040;-61
2023/01/02 03:18:38;;;;;;;2.45;1.67;;;13.90;87.30;;;;;;5096804;28;20305;-61
2023/01/02 03:21:11;;;;;;;3.58;1.55;;;14.00;87.20;;;;;;5103569;28;20501;-66
2023/01/02 03:23:47;;;;;;;3.92;1.83;;;14.00;87.20;;;;;;5098830;28;20032;-65
2023/01/02 03:26:17;;;;;;;7.90;1.50;;;14.00;87.20;;;;;;5094442;28;20523;-66
2023/01/02 03:28:48;;;;;;;3.25;1.48;;;14.00;87.20;;;;;;5096206;28;20028;-61
2023/01/02 03:31:19;;;;;;;2.15;0.90;;;14.00;87.20;;;;;;5077481;28;20032;-66
2023/01/02 03:33:56;;;;;;;2.75;1.67;;;14.10;87.20;;;;;;5073436;28;20363;-60
2023/01/02 03:36:26;;;;;;;4.53;1.75;;;14.10;87.20;;;;;;5080844;28;20115;-66
2023/01/02 03:39:06;;;;;;;3.45;1.13;;;14.10;87.30;;;;;;5073878;28;20107;-61
2023/01/02 03:41:40;;;;;;;1.88;1.45;;;14.10;87.30;;;;;;5096662;28;20054;-61
2023/01/02 03:44:08;;;;;;;1.63;1.20;;;14.10;87.40;;;;;;5109707;28;20034;-60
2023/01/02 03:46:47;;;;;;;5.75;1.10;;;14.10;87.50;;;;;;5106169;28;20069;-61
2023/01/02 03:49:29;;;;;;;2.08;1.13;;;14.10;87.50;;;;;;5078382;28;20046;-61
2023/01/02 03:51:54;;;;;;;8.80;2.57;;;14.10;87.60;;;;;;5084924;28;20034;-60
2023/01/02 03:54:21;;;;;;;8.98;2.08;;;14.10;87.80;;;;;;5110043;28;20039;-61
2023/01/02 03:56:56;;;;;;;3.85;1.60;;;14.10;87.80;;;;;;5089485;28;20031;-61
2023/01/02 03:59:56;;;;;;;5.10;1.90;;;14.10;87.60;;;;;;5097337;28;20479;-66
2023/01/02 04:02:43;;;;;;;3.72;1.20;;;14.20;87.60;;;;;;5097545;28;20031;-66
2023/01/02 04:05:21;;;;;;;1.92;1.33;;;14.20;87.40;;;;;;5108676;28;20133;-65
2023/01/02 04:07:55;;;;;;;7.63;2.38;;;14.20;87.40;;;;;;5099550;28;20032;-65
2023/01/02 04:10:22;;;;;;;3.05;1.52;;;14.20;87.50;;;;;;5104855;28;20479;-66
2023/01/02 04:12:51;;;;;;;2.08;1.30;;;14.20;87.60;;;;;;5097033;28;20092;-60
2023/01/02 04:15:23;;;;;;;2.97;1.42;;;14.20;87.60;;;;;;5089627;28;20024;-61
2023/01/02 04:18:06;;;;;;;4.90;1.00;;;14.20;87.50;;;;;;5103845;28;20051;-61
2023/01/02 04:20:46;;;;;;;1.77;1.30;;;14.20;87.30;;;;;;5095966;28;20031;-66
2023/01/02 04:23:43;;;;;;;2.78;1.65;;;14.20;87.40;;;;;;5086208;28;20020;-65
2023/01/02 04:26:34;;;;;;;4.30;1.23;;;14.20;87.50;;;;;;5091845;28;20012;-66
2023/01/02 04:29:00;;;;;;;4.85;1.42;;;14.20;87.50;;;;;;5079900;28;20122;-66
2023/01/02 04:31:38;;;;;;;3.75;1.67;;;14.10;87.60;;;;;;5096085;28;20062;-61
2023/01/02 04:34:06;;;;;;;1.45;1.17;;;14.10;87.60;;;;;;5095926;28;20023;-66
2023/01/02 04:36:37;;;;;;;2.28;1.25;;;14.20;87.60;;;;;;5095567;28;20504;-61
2023/01/02 04:39:03;;;;;;;2.17;1.15;;;14.20;87.60;;;;;;5094107;28;20028;-61
2023/01/02 04:41:29;;;;;;;4.38;1.35;;;14.20;87.70;;;;;;5071251;28;20028;-61
2023/01/02 04:43:55;;;;;;;3.78;1.48;;;14.10;87.80;;;;;;5090214;28;20028;-66
2023/01/02 04:46:22;;;;;;;4.22;1.17;;;14.10;88.40;;;;;;5077370;28;20479;-66
2023/01/02 04:48:59;;;;;;;1.38;1.10;;;14.10;87.80;;;;;;5077698;28;20084;-66
2023/01/02 04:51:25;;;;;;;5.18;1.58;;;14.20;87.90;;;;;;5035271;28;20118;-61
2023/01/02 04:53:52;;;;;;;5.70;1.77;;;14.10;87.80;;;;;;5096293;28;20118;-66
2023/01/02 04:56:18;;;;;;;2.10;1.20;;;14.20;87.90;;;;;;5075393;28;20050;-61
2023/01/02 04:58:45;;;;;;;1.77;1.35;;;14.20;87.90;;;;;;5092466;28;20048;-61
2023/01/02 05:01:13;;;;;;;4.32;1.08;;;14.10;87.80;;;;;;5090082;28;20039;-61
2023/01/02 05:03:43;;;;;;;3.08;1.08;;;14.10;88.00;;;;;;5073383;28;20017;-61
2023/01/02 05:06:09;;;;;;;8.68;1.60;;;14.10;88.10;;;;;;5099508;28;20114;-60
2023/01/02 05:08:36;;;;;;;3.38;1.58;;;14.10;88.10;;;;;;5057562;28;20471;-61
2023/01/02 05:11:16;;;;;;;5.68;1.80;;;14.10;88.10;;;;;;5099458;28;20031;-61
2023/01/02 05:13:42;;;;;;;2.60;1.27;;;14.10;88.20;;;;;;5091348;28;20085;-61
2023/01/02 05:16:09;;;;;;;2.13;1.23;;;14.10;88.30;;;;;;5100142;28;20035;-60
2023/01/02 05:18:35;;;;;;;6.95;1.67;;;14.10;88.40;;;;;;5075457;28;20050;-66
2023/01/02 05:23:47;;;;;;;1.52;1.08;;;14.10;88.40;;;;;;5098961;28;20020;-66
2023/01/02 05:24:00;;;;;;;13.68;1.60;;;14.10;88.30;;;;;;5094556;28;20045;-61
2023/01/02 05:26:25;;;;;;;3.78;1.63;;;14.10;88.40;;;;;;5106762;28;20023;-61
2023/01/02 05:28:52;;;;;;;2.40;1.45;;;14.10;88.40;;;;;;5100456;28;20032;-66
2023/01/02 05:31:18;;;;;;;2.70;1.67;;;14.10;88.30;;;;;;5107167;28;20031;-66
2023/01/02 05:33:43;;;;;;;1.58;0.90;;;14.10;88.20;;;;;;5108591;28;20133;-61
2023/01/02 05:36:09;;;;;;;3.22;0.80;;;14.10;88.20;;;;;;5103275;28;20107;-66
2023/01/02 05:38:35;;;;;;;4.13;1.52;;;14.10;88.10;;;;;;5102214;28;20043;-61
2023/01/02 05:41:06;;;;;;;1.05;0.93;;;14.20;88.20;;;;;;5085489;28;20101;-65
2023/01/02 05:43:33;;;;;;;1.10;1.00;;;14.20;88.10;;;;;;5100988;28;20055;-61
2023/01/02 05:46:10;;;;;;;3.25;1.52;;;14.20;88.00;;;;;;5094058;28;20027;-61
2023/01/02 05:48:36;;;;;;;3.67;1.67;;;14.20;88.60;;;;;;5106005;28;20492;-61
2023/01/02 05:51:03;;;;;;;1.75;1.30;;;14.20;87.90;;;;;;5096112;28;20023;-60
2023/01/02 05:53:29;;;;;;;1.85;0.90;;;14.20;87.80;;;;;;5081590;28;20027;-65
2023/01/02 05:56:02;;;;;;;2.55;1.27;;;14.20;87.80;;;;;;5099370;28;20478;-60
2023/01/02 05:58:36;;;;;;;7.78;1.73;;;14.20;87.70;;;;;;5091853;28;20048;-61
2023/01/02 06:01:10;;;;;;;1.67;1.20;;;14.20;87.70;;;;;;5097065;28;20015;-60
2023/01/02 06:03:36;;;;;;;6.18;1.27;;;14.20;87.70;;;;;;5097637;28;20058;-66
2023/01/02 06:06:09;;;;;;;2.00;1.25;;;14.20;88.20;;;;;;5097242;28;20019;-66
2023/01/02 06:08:36;;;;;;;1.05;0.95;;;14.20;87.50;;;;;;5094172;28;20055;-66
2023/01/02 06:11:03;;;;;;;1.50;1.00;;;14.20;87.40;;;;;;5091771;28;20510;-66
2023/01/02 06:13:29;;;;;;;1.13;0.90;;;14.30;87.40;;;;;;5095277;28;20085;-66
2023/01/02 06:15:56;;;;;;;2.13;1.42;;;14.20;87.30;;;;;;5074375;28;20032;-66
2023/01/02 06:18:22;;;;;;;4.32;1.30;;;14.30;87.40;;;;;;5094936;28;20410;-61
2023/01/02 06:20:48;;;;;;;2.20;1.75;;;14.30;87.30;;;;;;5077774;28;21315;-66
2023/01/02 06:23:13;;;;;;;4.35;1.73;;;14.30;87.30;;;;;;5093737;28;20583;-60
2023/01/02 06:25:39;;;;;;;3.72;1.60;;;14.20;87.20;;;;;;5094067;28;20524;-65
2023/01/02 06:28:05;;;;;;;4.05;1.13;;;14.20;87.20;;;;;;5072363;28;20031;-61
2023/01/02 06:30:30;;;;;;;1.85;0.98;;;14.20;87.10;;;;;;5092778;28;20032;-61
2023/01/02 06:32:56;;;;;;;1.15;1.05;;;14.20;87.10;;;;;;5094262;28;20032;-61
2023/01/02 06:35:22;;;;;;;6.93;1.60;;;14.20;87.10;;;;;;5096053;28;20033;-65
2023/01/02 06:37:48;;;;;;;1.20;1.10;;;14.20;87.10;;;;;;5099493;28;20038;-66
2023/01/02 06:40:14;;;;;;;5.40;1.45;;;14.30;87.10;;;;;;5092197;28;20024;-60
2023/01/02 06:42:43;;;;;;;1.15;0.95;;;14.30;87.10;;;;;;5071509;28;20032;-60
2023/01/02 06:45:09;;;;;;;6.55;1.15;;;14.30;87.10;;;;;;5089060;28;20016;-61
2023/01/02 06:47:34;;;;;;;4.30;1.08;;;14.20;87.20;;;;;;5092224;28;20107;-65
2023/01/02 06:50:00;;;;;;;2.67;1.00;;;14.20;87.20;;;;;;5085032;28;20581;-66
2023/01/02 06:52:29;;;;;;;5.88;1.55;;;14.20;87.40;;;;;;5095445;28;20482;-61
2023/01/02 06:54:54;;;;;;;3.35;0.95;;;14.10;87.50;;;;;;5076548;28;20125;-61
2023/01/02 06:57:20;;;;;;;1.15;0.50;;;14.00;86.50;;;;;;5095763;28;20099;-60
2023/01/02 06:59:46;;;;;;;1.50;0.70;;;13.90;86.30;;;;;;5088254;28;20036;-61
2023/01/02 07:02:13;;;;;;;0.30;0.30;;;13.80;86.00;;;;;;5083043;28;20032;-65
2023/01/02 07:04:39;;;;;;;0.20;0.20;;;13.70;85.60;;;;;;5097127;28;20036;-65
2023/01/02 07:07:05;;;;;;;0.20;0.20;;;13.60;85.70;;;;;;5101546;28;20015;-66
2023/01/02 07:09:31;;;;;;;1.70;0.20;;;13.50;85.40;;;;;;5087297;28;20030;-60
2023/01/02 07:11:57;;;;;;;0.25;0.20;;;13.40;85.30;;;;;;5101671;28;20114;-66
2023/01/02 07:14:23;;;;;;;0.32;0.32;;;13.30;85.60;;;;;;5097263;28;20032;-66
2023/01/02 07:16:50;;;;;;;0.20;0.20;;;13.30;85.70;;;;;;5094721;28;20038;-66
2023/01/02 07:19:16;;;;;;;0.10;0.10;;;13.20;85.40;;;;;;5099076;28;20376;-65
2023/01/02 07:21:42;;;;;;;0.10;0.10;;;13.20;85.30;;;;;;5095135;28;20093;-66
2023/01/02 07:24:12;;;;;;;0.20;0.20;;;13.00;84.80;;;;;;5094308;28;20056;-66
2023/01/02 07:26:38;;;;;;;0.30;0.30;;;12.90;84.80;;;;;;5089809;28;20099;-66
2023/01/02 07:29:04;;;;;;;0.32;0.30;;;12.80;84.90;;;;;;5088513;28;20427;-66
2023/01/02 07:31:30;;;;;;;0.30;0.30;;;12.80;85.00;;;;;;5090640;28;20028;-66
2023/01/02 07:33:57;;;;;;;0.80;0.50;;;12.80;85.10;;;;;;5089802;28;20066;-66
2023/01/02 07:36:23;;;;;;;0.90;0.47;;;12.70;85.10;;;;;;5087401;28;20028;-65
2023/01/02 07:38:53;;;;;;;0.93;0.50;;;12.70;84.90;;;;;;5088077;28;20402;-65
2023/01/02 07:41:21;;;;;;;0.32;0.30;;;12.70;85.10;;;;;;5089656;28;20692;-65
2023/01/02 07:43:47;;;;;;;0.40;0.35;;;12.60;84.90;;;;;;5083753;28;20046;-66
2023/01/02 07:46:15;;;;;;;0.55;0.40;;;12.60;85.10;;;;;;5100270;28;20415;-61
2023/01/02 07:48:41;;;;;;;0.32;0.32;;;12.50;85.10;;;;;;5079349;28;20034;-61
2023/01/02 07:51:07;;;;;;;0.47;0.45;;;12.60;85.20;;;;;;5095456;28;20511;-61
2023/01/02 07:53:34;;;;;;;0.85;0.50;;;12.50;84.90;;;;;;5092884;28;20114;-61
2023/01/02 07:56:01;;;;;;;1.00;0.47;;;12.40;85.00;;;;;;5079097;28;20031;-69
2023/01/02 07:58:27;;;;;;;0.38;0.30;;;12.40;85.10;;;;;;5083603;28;20449;-70
2023/01/02 08:00:53;;;;;;;0.73;0.45;;;12.50;85.20;;;;;;5073491;28;20130;-69
2023/01/02 08:03:19;;;;;;;0.57;0.50;;;12.40;85.00;;;;;;5077549;28;20035;-61
2023/01/02 08:05:45;;;;;;;1.00;0.73;;;12.40;85.30;;;;;;5083412;28;20368;-61
2023/01/02 08:08:11;;;;;;;0.47;0.47;;;12.40;85.30;;;;;;5082584;28;20035;-61
2023/01/02 08:10:37;;;;;;;0.82;0.55;;;12.40;85.30;;;;;;5083571;28;20032;-62
2023/01/02 08:13:04;;;;;;;0.70;0.60;;;12.40;85.30;;;;;;5091403;28;20486;-61
2023/01/02 08:15:30;;;;;;;2.28;0.70;;;12.40;85.30;;;;;;5079922;28;20031;-61
2023/01/02 08:17:57;;;;;;;1.83;0.90;;;12.30;85.40;;;;;;5074788;28;20035;-65
2023/01/02 08:20:24;;;;;;;0.65;0.65;;;12.30;85.50;;;;;;5059248;28;20469;-61
2023/01/02 08:22:49;;;;;;;1.05;0.90;;;12.30;85.60;;;;;;5076236;28;20483;-61
2023/01/02 08:25:15;;;;;;;1.38;0.82;;;12.30;85.60;;;;;;5058139;28;20112;-65
2023/01/02 08:27:41;;;;;;;1.02;0.77;;;12.40;85.60;;;;;;5086832;28;20520;-61
2023/01/02 08:30:07;;;;;;;1.42;1.30;;;12.30;85.50;;;;;;5097714;28;20368;-67
2023/01/02 08:32:37;;;;;;;1.70;1.25;;;12.30;85.70;;;;;;5078999;28;20044;-61
2023/01/02 08:35:04;;;;;;;1.40;1.13;;;12.30;85.60;;;;;;5083783;28;20578;-61
2023/01/02 08:37:30;;;;;;;2.10;1.20;;;12.30;85.60;;;;;;5092269;28;20482;-60
2023/01/02 08:39:56;;;;;;;2.00;1.02;;;12.40;85.70;;;;;;5088038;28;20023;-61
2023/01/02 08:42:22;;;;;;;1.33;1.10;;;12.40;85.50;;;;;;5076943;28;20024;-61
2023/01/02 08:44:47;;;;;;;1.40;1.15;;;12.30;85.50;;;;;;5078384;28;20036;-66
2023/01/02 08:47:13;;;;;;;1.90;1.48;;;12.30;85.70;;;;;;5063995;28;20028;-60
2023/01/02 08:49:39;;;;;;;1.98;1.23;;;12.20;85.70;;;;;;5070086;28;20121;-60
2023/01/02 08:52:05;;;;;;;1.60;0.93;;;12.20;85.90;;;;;;5090461;28;20057;-60
2023/01/02 08:54:30;;;;;;;1.23;1.08;;;12.10;85.80;;;;;;5090440;28;20131;-60
2023/01/02 08:56:56;;;;;;;1.65;0.90;;;12.10;86.00;;;;;;5055057;28;20041;-60
2023/01/02 08:59:24;;;;;;;2.05;1.17;;;12.10;86.00;;;;;;5055955;28;20054;-65
2023/01/02 09:01:50;;;;;;;1.35;0.85;;;12.00;85.80;;;;;;5047995;28;20021;-66
2023/01/02 09:04:16;;;;;;;1.17;0.90;;;12.00;85.80;;;;;;5044851;28;20098;-66
2023/01/02 09:06:42;;;;;;;1.08;0.95;;;12.10;85.80;;;;;;5052152;28;20024;-66
2023/01/02 09:09:09;;;;;;;2.25;1.38;;;12.10;85.70;;;;;;5046719;28;20044;-66
2023/01/02 09:11:37;;;;;;;1.80;0.90;;;12.10;85.70;;;;;;5050942;28;20385;-60
2023/01/02 09:14:04;;;;;;;1.35;1.10;;;12.10;85.30;;;;;;5045649;28;20062;-60
2023/01/02 09:16:30;;;;;;;0.90;0.90;;;12.00;85.10;;;;;;5044491;28;20392;-60
2023/01/02 09:19:00;;;;;;;1.13;0.90;;;11.90;85.00;;;;;;5044848;28;20025;-65
2023/01/02 09:21:26;;;;;;;1.38;1.13;;;11.80;85.20;;;;;;5049911;28;20029;-65
2023/01/02 09:23:52;;;;;;;1.08;0.95;;;11.80;85.40;;;;;;5048728;28;20348;-65
2023/01/02 09:26:18;;;;;;;0.80;0.80;;;11.80;85.40;;;;;;5052961;28;20021;-65
2023/01/02 09:28:44;;;;;;;1.05;0.80;;;11.80;85.20;;;;;;5048873;28;20037;-64
2023/01/02 09:31:12;;;;;;;1.48;1.20;;;11.80;85.20;;;;;;5043587;28;20387;-64
2023/01/02 09:33:40;;;;;;;1.45;0.93;;;11.80;85.00;;;;;;5045673;28;20044;-59
2023/01/02 09:36:07;;;;;;;0.75;0.65;;;11.90;85.00;;;;;;5030770;28;20664;-59
2023/01/02 09:38:33;;;;;;;0.95;0.65;;;11.90;85.00;;;;;;5035590;28;20029;-64
2023/01/02 09:41:04;;;;;;;1.02;0.98;;;11.90;85.00;;;;;;5045400;28;20071;-63
2023/01/02 09:43:45;;;;;;;2.03;1.10;;;11.90;84.90;;;;;;5048698;28;20028;-59
2023/01/02 09:46:32;;;;;;;1.60;1.13;;;11.90;84.40;;;;;;5043792;28;20063;-60
2023/01/02 09:48:59;;;;;;;0.85;0.80;;;11.90;84.40;;;;;;5035210;28;20535;-59
2023/01/02 09:51:26;;;;;;;2.08;1.00;;;11.80;84.50;;;;;;5045358;28;20025;-58
2023/01/02 09:53:52;;;;;;;1.20;1.00;;;11.70;84.50;;;;;;5040700;28;20040;-63
2023/01/02 09:56:29;;;;;;;1.92;1.05;;;11.70;84.60;;;;;;5047824;28;20095;-59
2023/01/02 09:59:11;;;;;;;0.80;0.80;;;11.70;85.00;;;;;;5061228;28;20086;-59
2023/01/02 10:01:53;;;;;;;1.10;1.00;;;11.70;84.50;;;;;;5087004;28;20545;-60
2023/01/02 10:04:35;;;;;;;1.25;0.88;;;11.80;84.50;;;;;;5087197;28;20389;-59
2023/01/02 10:07:15;;;;;;;1.02;0.93;;;11.90;84.30;;;;;;5069445;28;20386;-59
2023/01/02 10:10:08;;;;;;;1.48;1.13;;;12.00;84.30;;;;;;5088855;28;20021;-64
2023/01/02 10:12:56;;;;;;;1.40;1.25;;;12.00;83.80;;;;;;5087990;28;20028;-58
2023/01/02 10:15:27;;;;;;;2.50;1.60;;;11.90;83.60;;;;;;5085066;28;20028;-64
2023/01/02 10:17:58;;;;;;;2.03;1.63;;;11.90;83.70;;;;;;5073288;28;20020;-59
2023/01/02 10:20:31;;;;;;;1.60;1.25;;;11.90;83.80;;;;;;5087273;28;20055;-64
2023/01/02 10:23:04;;;;;;;1.90;1.08;;;11.90;83.90;;;;;;5091731;28;20101;-64
2023/01/02 10:25:37;;;;;;;2.58;1.20;;;11.90;83.90;;;;;;5090963;28;20031;-59
2023/01/02 10:28:31;;;;;;;1.38;0.95;;;11.90;83.90;;;;;;5082682;28;20020;-59
2023/01/02 10:31:06;;;;;;;1.45;1.15;;;11.90;83.70;;;;;;5088655;28;20028;-63
2023/01/02 10:33:56;;;;;;;0.82;0.82;;;11.80;83.60;;;;;;5090147;28;20016;-63
2023/01/02 10:36:30;;;;;;;1.02;0.70;;;11.80;83.50;;;;;;5084335;28;20522;-63
2023/01/02 10:39:08;;;;;;;1.38;0.70;;;11.80;83.60;;;;;;5096130;28;20442;-59
2023/01/02 10:41:35;;;;;;;0.93;0.80;;;11.90;83.40;;;;;;5103938;28;20430;-58
2023/01/02 10:44:23;;;;;;;1.90;0.63;;;11.90;83.20;;;;;;5097391;28;20020;-63
2023/01/02 10:46:49;;;;;;;1.85;0.60;;;11.90;83.00;;;;;;5095411;28;20048;-59
2023/01/02 10:49:15;;;;;;;2.95;1.10;;;11.90;83.20;;;;;;5080861;28;20047;-59
2023/01/02 10:51:47;;;;;;;0.75;0.60;;;11.90;83.10;;;;;;5085055;28;20024;-59
2023/01/02 10:54:12;;;;;;;0.88;0.77;;;11.90;82.90;;;;;;5082535;28;20020;-58
2023/01/02 10:56:40;;;;;;;0.60;0.60;;;11.90;82.70;;;;;;5081195;28;20031;-59
2023/01/02 10:59:21;;;;;;;2.10;0.90;;;11.90;82.80;;;;;;5084159;28;20048;-59
2023/01/02 11:02:23;;;;;;;1.08;0.80;;;12.00;82.70;;;;;;5085770;28;20344;-59
2023/01/02 11:04:50;;;;;;;0.75;0.45;;;11.90;82.10;;;;;;5080051;28;20032;-59
2023/01/02 11:07:24;;;;;;;2.45;1.05;;;11.90;82.50;;;;;;5090178;28;20020;-64
2023/01/02 11:09:55;;;;;;;1.65;0.47;;;11.90;82.50;;;;;;5064930;28;20024;-62
2023/01/02 11:12:22;;;;;;;4.55;0.80;;;11.90;82.30;;;;;;5090295;28;20012;-62
2023/01/02 11:14:47;;;;;;;0.80;0.65;;;11.90;82.30;;;;;;5086292;28;20108;-62
2023/01/02 11:17:19;;;;;;;0.50;0.50;;;12.00;82.30;;;;;;5090411;28;20115;-58
2023/01/02 11:19:46;;;;;;;5.97;0.90;;;12.10;82.40;;;;;;5072213;28;20020;-62
2023/01/02 11:22:15;;;;;;;0.60;0.60;;;12.00;82.20;;;;;;5090708;28;20456;-62
2023/01/02 11:25:06;;;;;;;1.40;0.63;;;12.00;82.20;;;;;;5101185;28;20047;-62
2023/01/02 11:27:35;;;;;;;0.60;0.60;;;12.00;82.30;;;;;;5074343;28;20043;-58
2023/01/02 11:30:03;;;;;;;6.50;1.75;;;12.00;82.40;;;;;;5079389;28;20023;-62
2023/01/02 11:32:38;;;;;;;0.77;0.73;;;12.10;82.20;;;;;;5104599;28;20026;-62
2023/01/02 11:35:25;;;;;;;2.88;0.93;;;12.10;82.00;;;;;;5081569;28;20012;-62
2023/01/02 11:37:51;;;;;;;1.48;0.80;;;12.10;82.20;;;;;;5078599;28;20031;-58
2023/01/02 11:40:29;;;;;;;9.63;0.90;;;12.20;82.10;;;;;;5106477;28;20501;-57
2023/01/02 11:45:44;;;;;;;3.75;0.85;;;12.20;81.90;;;;;;5094438;28;20133;-57
2023/01/02 11:48:22;;;;;;;2.25;0.77;;;12.20;81.80;;;;;;5085434;28;20030;-57
2023/01/02 11:50:49;;;;;;;0.65;0.43;;;12.20;81.80;;;;;;5100146;28;20459;-57
2023/01/02 11:53:19;;;;;;;0.82;0.63;;;12.10;81.90;;;;;;5088747;28;20039;-57
2023/01/02 11:56:23;;;;;;;0.88;0.68;;;12.10;81.80;;;;;;5097358;28;20067;-62
2023/01/02 11:59:20;;;;;;;1.27;0.73;;;12.20;81.80;;;;;;5084377;28;20097;-62
2023/01/02 12:01:55;;;;;;;0.90;0.80;;;12.10;81.90;;;;;;5080721;28;20214;-57
2023/01/02 12:04:22;;;;;;;2.97;1.27;;;12.10;81.90;;;;;;5100422;28;20095;-57
2023/01/02 12:06:59;;;;;;;1.05;0.80;;;12.10;81.80;;;;;;5084336;28;20109;-61
2023/01/02 12:09:39;;;;;;;7.43;1.10;;;12.10;81.70;;;;;;5100643;28;20027;-58
2023/01/02 12:12:31;;;;;;;2.58;0.80;;;12.10;81.50;;;;;;5088150;28;20046;-57
2023/01/02 12:15:06;;;;;;;1.65;1.27;;;12.10;81.40;;;;;;5070639;28;20067;-58
2023/01/02 12:18:06;;;;;;;1.83;0.93;;;12.10;81.40;;;;;;5079810;28;20062;-58
2023/01/02 12:21:09;;;;;;;1.95;0.80;;;12.20;81.40;;;;;;5059519;28;20115;-58
2023/01/02 12:24:00;;;;;;;1.17;0.60;;;12.20;81.30;;;;;;5090167;28;20140;-62
2023/01/02 12:26:54;;;;;;;8.18;0.88;;;12.20;81.30;;;;;;5079385;28;20021;-62
2023/01/02 12:29:25;;;;;;;1.98;1.13;;;12.20;81.40;;;;;;5077808;28;20031;-63
2023/01/02 12:32:00;;;;;;;9.07;1.52;;;12.10;81.30;;;;;;5088968;28;20044;-62
2023/01/02 12:34:28;;;;;;;3.00;1.55;;;12.00;81.50;;;;;;5079641;28;20039;-62
2023/01/02 12:37:20;;;;;;;2.05;1.05;;;12.00;81.60;;;;;;5092786;28;20036;-58
2023/01/02 12:40:31;;;;;;;1.08;0.98;;;12.10;81.60;;;;;;5079052;28;20059;-58
2023/01/02 12:43:20;;;;;;;1.33;0.90;;;12.10;81.30;;;;;;5091323;28;20059;-58
2023/01/02 12:46:04;;;;;;;3.38;1.10;;;12.00;81.30;;;;;;5075030;28;20444;-61
2023/01/02 12:48:51;;;;;;;6.03;1.58;;;12.00;81.60;;;;;;5087479;28;20157;-61
2023/01/02 12:51:33;;;;;;;3.83;1.15;;;12.00;81.60;;;;;;5103579;27;20075;-61
2023/01/02 12:54:21;;;;;;;1.55;1.10;;;12.00;81.70;;;;;;5085827;28;20028;-62
2023/01/02 12:56:57;;;;;;;2.60;1.27;;;12.00;81.60;;;;;;5088790;28;20035;-62
2023/01/02 13:00:06;;;;;;;2.83;1.13;;;12.00;81.60;;;;;;5094074;28;20055;-62
2023/01/02 13:02:56;;;;;;;3.20;0.80;;;12.00;81.70;;;;;;5082622;28;20032;-58
2023/01/02 13:05:27;;;;;;;1.58;1.20;;;12.10;81.70;;;;;;5063482;28;20036;-58
2023/01/02 13:08:03;;;;;;;1.83;1.02;;;12.10;81.60;;;;;;5080217;28;20569;-59
2023/01/02 13:10:29;;;;;;;2.72;1.65;;;12.20;81.50;;;;;;5091457;28;20023;-62
2023/01/02 13:12:57;;;;;;;1.63;1.23;;;12.10;81.30;;;;;;5071997;28;20028;-58
2023/01/02 13:15:27;;;;;;;4.10;1.15;;;12.10;81.40;;;;;;5067364;28;20063;-58